Talpa, New Mexico
Current Conditions -  °F | °C
As of 8:55 PM on Wednesday 17 Dec 2014 (Local Time) from KSKX Reporting Station
Overcast Overcast  
Wind Chill: 30°   Ceiling: 400
Heat Index: 30°   Visibility: 7mi
Dew Point: 27°   Wind: 0mph
Humidity: 86%   Direction: NA
Pressure: 30.03"   Gusts: NA
Location:  36.2692°N, 105.543°W
Report Text: KSKX 180355Z AUTO 00000KT 7SM OVC004 M01/M03 A3003 RMK AO1
Loading
Personal Weather Stations






























Interactive Weather Map New forecast layout! Learn more

10-Day Weather Forecast

Advertisements
Track Severe Weather on mobile